createdAt,value
2022-09-10T00:00:56.513Z,1.40
2022-09-10T00:03:43.516Z,1.13
2022-09-10T00:06:29.598Z,1.38
2022-09-10T00:09:15.013Z,1.10
2022-09-10T00:12:00.163Z,1.38
2022-09-10T00:14:46.032Z,1.40
2022-09-10T00:17:32.787Z,1.10
2022-09-10T00:20:18.093Z,1.40
2022-09-10T00:23:03.385Z,1.30
2022-09-10T00:25:49.264Z,1.30
2022-09-10T00:28:34.860Z,1.55
2022-09-10T00:31:21.810Z,1.20
2022-09-10T00:34:07.467Z,1.20
2022-09-10T00:36:53.010Z,1.30
2022-09-10T00:39:38.538Z,1.10
2022-09-10T00:42:23.731Z,0.90
2022-09-10T00:45:20.122Z,1.23
2022-09-10T00:48:11.509Z,0.85
2022-09-10T00:51:05.777Z,0.70
2022-09-10T00:53:51.158Z,1.10
2022-09-10T00:56:37.187Z,1.02
2022-09-10T00:59:26.537Z,0.75
2022-09-10T01:02:12.186Z,1.10
2022-09-10T01:05:00.569Z,1.27
2022-09-10T01:07:46.028Z,1.60
2022-09-10T01:10:39.293Z,1.50
2022-09-10T01:13:33.226Z,1.42
2022-09-10T01:16:25.359Z,1.10
2022-09-10T01:19:28.289Z,1.15
2022-09-10T01:22:32.469Z,1.00
2022-09-10T01:25:39.646Z,1.48
2022-09-10T01:28:37.471Z,1.80
2022-09-10T01:31:27.715Z,1.30
2022-09-10T01:34:29.706Z,1.23
2022-09-10T01:37:24.435Z,1.27
2022-09-10T01:40:11.206Z,1.77
2022-09-10T01:43:01.829Z,1.00
2022-09-10T01:46:00.954Z,1.10
2022-09-10T01:49:15.048Z,1.10
2022-09-10T01:52:15.304Z,1.50
2022-09-10T01:55:22.362Z,1.08
2022-09-10T01:58:33.500Z,1.30
2022-09-10T02:01:34.815Z,1.40
2022-09-10T02:04:22.295Z,1.25
2022-09-10T02:07:08.617Z,1.42
2022-09-10T02:09:55.457Z,1.30
2022-09-10T02:12:40.797Z,1.83
2022-09-10T02:15:28.660Z,2.03
2022-09-10T02:18:13.947Z,1.30
2022-09-10T02:21:02.725Z,1.20
2022-09-10T02:23:53.419Z,1.10
2022-09-10T02:26:44.099Z,1.70
2022-09-10T02:29:29.417Z,1.38
2022-09-10T02:32:14.352Z,1.08
2022-09-10T02:34:59.787Z,0.98
2022-09-10T02:37:45.072Z,1.30
2022-09-10T02:40:31.734Z,1.25
2022-09-10T02:43:17.676Z,0.73
2022-09-10T02:46:03.558Z,1.30
2022-09-10T02:48:48.739Z,1.20
2022-09-10T02:51:33.997Z,1.30
2022-09-10T02:54:22.560Z,1.30
2022-09-10T02:57:08.173Z,1.00
2022-09-10T02:59:53.986Z,1.20
2022-09-10T03:02:40.253Z,1.30
2022-09-10T03:05:25.295Z,1.20
2022-09-10T03:08:10.904Z,0.90
2022-09-10T03:10:57.912Z,1.00
2022-09-10T03:13:45.892Z,0.88
2022-09-10T03:16:31.019Z,1.05
2022-09-10T03:19:17.403Z,1.08
2022-09-10T03:22:03.016Z,0.90
2022-09-10T03:24:48.195Z,0.98
2022-09-10T03:27:33.545Z,0.88
2022-09-10T03:30:21.762Z,1.00
2022-09-10T03:33:07.784Z,0.70
2022-09-10T03:35:54.181Z,1.05
2022-09-10T03:38:40.193Z,0.80
2022-09-10T03:41:28.278Z,1.42
2022-09-10T03:44:14.168Z,0.80
2022-09-10T03:47:00.962Z,0.88
2022-09-10T03:49:45.988Z,0.60
2022-09-10T03:52:31.444Z,0.95
2022-09-10T03:55:17.866Z,1.20
2022-09-10T03:58:03.279Z,1.10
2022-09-10T04:00:49.470Z,1.10
2022-09-10T04:03:34.828Z,0.85
2022-09-10T04:06:20.177Z,1.42
2022-09-10T04:09:05.652Z,1.00
2022-09-10T04:11:50.901Z,1.08
2022-09-10T04:14:36.207Z,1.27
2022-09-10T04:17:21.720Z,1.17
2022-09-10T04:20:07.919Z,0.90
2022-09-10T04:22:53.899Z,1.00
2022-09-10T04:25:39.234Z,1.05
2022-09-10T04:28:24.757Z,0.90
2022-09-10T04:31:10.886Z,1.05
2022-09-10T04:33:56.277Z,0.93
2022-09-10T04:36:41.778Z,0.88
2022-09-10T04:39:27.068Z,0.85
2022-09-10T04:42:15.060Z,1.00
2022-09-10T04:45:00.472Z,1.20
2022-09-10T04:47:49.450Z,0.90
2022-09-10T04:50:35.572Z,0.80
2022-09-10T04:53:21.607Z,0.82
2022-09-10T04:56:07.582Z,1.05
2022-09-10T04:58:52.809Z,0.90
2022-09-10T05:01:38.294Z,0.90
2022-09-10T05:04:24.232Z,1.00
2022-09-10T05:07:09.648Z,0.70
2022-09-10T05:09:55.173Z,1.00
2022-09-10T05:12:40.160Z,0.90
2022-09-10T05:15:25.575Z,0.80
2022-09-10T05:18:10.985Z,0.73
2022-09-10T05:20:56.299Z,0.70
2022-09-10T05:23:41.728Z,0.90
2022-09-10T05:26:27.795Z,0.77
2022-09-10T05:29:14.013Z,0.60
2022-09-10T05:31:59.106Z,0.73
2022-09-10T05:34:48.456Z,0.85
2022-09-10T05:37:34.270Z,0.90
2022-09-10T05:40:20.888Z,0.70
2022-09-10T05:43:07.195Z,0.68
2022-09-10T05:45:52.905Z,0.80
2022-09-10T05:48:41.748Z,0.90
2022-09-10T05:51:29.839Z,0.70
2022-09-10T05:54:16.175Z,0.77
2022-09-10T05:57:01.782Z,1.10
2022-09-10T05:59:47.149Z,0.88
2022-09-10T06:02:33.460Z,1.38
2022-09-10T06:05:22.741Z,1.05
2022-09-10T06:08:08.990Z,0.75
2022-09-10T06:11:04.298Z,0.82
2022-09-10T06:13:49.669Z,0.88
2022-09-10T06:16:34.850Z,0.80
2022-09-10T06:19:20.941Z,0.90
2022-09-10T06:22:06.389Z,0.98
2022-09-10T06:24:51.725Z,0.90
2022-09-10T06:27:37.569Z,1.10
2022-09-10T06:30:22.691Z,1.40
2022-09-10T06:33:07.769Z,0.98
2022-09-10T06:35:58.048Z,1.45
2022-09-10T06:38:45.010Z,0.88
2022-09-10T06:41:31.059Z,1.05
2022-09-10T06:44:16.241Z,1.13
2022-09-10T06:47:42.771Z,1.00
2022-09-10T06:50:08.033Z,1.10
2022-09-10T06:52:54.040Z,1.02
2022-09-10T06:55:39.120Z,1.13
2022-09-10T06:58:24.687Z,1.00
2022-09-10T07:01:21.544Z,0.82
2022-09-10T07:04:06.864Z,0.90
2022-09-10T07:06:52.664Z,1.20
2022-09-10T07:09:37.615Z,0.82
2022-09-10T07:12:22.949Z,1.00
2022-09-10T07:15:08.859Z,0.82
2022-09-10T07:17:54.798Z,0.90
2022-09-10T07:20:44.252Z,0.90
2022-09-10T07:23:29.373Z,0.80
2022-09-10T07:26:17.133Z,0.90
2022-09-10T07:29:02.637Z,1.00
2022-09-10T07:31:48.231Z,1.00
2022-09-10T07:34:33.901Z,1.08
2022-09-10T07:37:19.086Z,1.40
2022-09-10T07:40:05.242Z,1.30
2022-09-10T07:42:50.599Z,1.20
2022-09-10T07:45:36.114Z,1.25
2022-09-10T07:48:21.640Z,1.25
2022-09-10T07:51:08.706Z,1.30
2022-09-10T07:53:56.376Z,1.30
2022-09-10T07:56:42.606Z,0.93
2022-09-10T07:59:27.959Z,0.98
2022-09-10T08:02:15.305Z,1.05
2022-09-10T08:05:01.165Z,1.00
2022-09-10T08:07:46.601Z,1.50
2022-09-10T08:10:31.772Z,0.88
2022-09-10T08:13:17.301Z,1.15
2022-09-10T08:16:10.909Z,1.20
2022-09-10T08:19:00.142Z,1.23
2022-09-10T08:21:45.587Z,1.20
2022-09-10T08:24:31.297Z,1.20
2022-09-10T08:27:17.707Z,1.10
2022-09-10T08:30:02.966Z,1.55
2022-09-10T08:32:48.948Z,1.80
2022-09-10T08:35:34.297Z,1.40
2022-09-10T08:38:20.139Z,3.30
2022-09-10T08:41:17.429Z,1.15
2022-09-10T08:44:08.874Z,2.22
2022-09-10T08:47:13.507Z,1.33
2022-09-10T08:50:02.378Z,1.63
2022-09-10T08:52:52.754Z,1.48
2022-09-10T08:55:41.353Z,1.70
2022-09-10T08:58:54.309Z,1.95
2022-09-10T09:04:52.752Z,1.95
2022-09-10T09:07:40.223Z,1.50
2022-09-10T09:10:25.222Z,1.50
2022-09-10T09:13:37.909Z,1.63
2022-09-10T09:16:29.232Z,1.48
2022-09-10T09:19:26.255Z,1.80
2022-09-10T09:22:18.945Z,1.60
2022-09-10T09:25:32.704Z,1.67
2022-09-10T09:28:43.462Z,1.42
2022-09-10T09:31:37.882Z,1.33
2022-09-10T09:34:34.470Z,1.50
2022-09-10T09:37:24.857Z,1.52
2022-09-10T09:40:13.577Z,1.48
2022-09-10T09:43:04.793Z,1.45
2022-09-10T09:45:53.367Z,1.23
2022-09-10T09:48:41.219Z,1.30
2022-09-10T09:51:30.602Z,1.30
2022-09-10T09:54:56.923Z,1.10
2022-09-10T09:57:27.711Z,1.50
2022-09-10T10:00:35.960Z,1.25
2022-09-10T10:03:33.640Z,1.13
2022-09-10T10:06:28.502Z,1.10
2022-09-10T10:09:21.374Z,1.15
2022-09-10T10:12:09.223Z,0.95
2022-09-10T10:14:54.428Z,0.85
2022-09-10T10:17:40.622Z,0.95
2022-09-10T10:20:38.779Z,1.15
2022-09-10T10:23:38.909Z,1.23
2022-09-10T10:26:28.318Z,1.05
2022-09-10T10:29:20.999Z,1.00
2022-09-10T10:32:16.109Z,0.88
2022-09-10T10:35:22.931Z,0.80
2022-09-10T10:38:30.035Z,0.60
2022-09-10T10:42:04.381Z,0.70
2022-09-10T10:45:08.652Z,0.70
2022-09-10T10:48:09.877Z,1.33
2022-09-10T10:51:06.937Z,0.80
2022-09-10T10:54:29.655Z,0.77
2022-09-10T10:57:43.195Z,0.80
2022-09-10T11:00:36.137Z,1.00
2022-09-10T11:03:36.175Z,0.85
2022-09-10T11:06:25.682Z,0.90
2022-09-10T11:09:31.352Z,0.93
2022-09-10T11:12:28.577Z,0.82
2022-09-10T11:15:33.283Z,0.80
2022-09-10T11:18:23.921Z,1.05
2022-09-10T11:21:17.668Z,0.82
2022-09-10T11:24:18.787Z,1.10
2022-09-10T11:27:18.585Z,1.00
2022-09-10T11:30:12.231Z,0.90
2022-09-10T11:33:09.331Z,0.80
2022-09-10T11:36:10.966Z,0.90
2022-09-10T11:39:29.329Z,1.30
2022-09-10T11:42:28.887Z,0.95
2022-09-10T11:45:31.092Z,1.10
2022-09-10T11:48:23.513Z,0.90
2022-09-10T11:54:28.333Z,1.08
2022-09-10T11:57:34.817Z,1.05
2022-09-10T12:00:20.402Z,0.80
2022-09-10T12:03:27.129Z,1.00
2022-09-10T12:06:22.201Z,0.82
2022-09-10T12:09:39.053Z,1.13
2022-09-10T12:12:42.959Z,1.27
2022-09-10T12:15:36.986Z,1.00
2022-09-10T12:18:30.591Z,1.00
2022-09-10T12:21:34.531Z,1.10
2022-09-10T12:24:33.176Z,0.90
2022-09-10T12:27:20.217Z,0.70
2022-09-10T12:30:33.259Z,0.90
2022-09-10T12:33:22.189Z,1.05
2022-09-10T12:36:07.471Z,1.30
2022-09-10T12:39:17.648Z,1.17
2022-09-10T12:42:23.110Z,0.80
2022-09-10T12:45:09.040Z,1.33
2022-09-10T12:47:54.495Z,1.60
2022-09-10T12:50:46.030Z,1.50
2022-09-10T12:53:50.337Z,1.23
2022-09-10T12:56:55.631Z,1.50
2022-09-10T13:00:22.093Z,1.40
2022-09-10T13:03:07.623Z,1.30
2022-09-10T13:05:56.519Z,1.30
2022-09-10T13:08:44.972Z,1.92
2022-09-10T13:11:35.744Z,2.03
2022-09-10T13:14:27.204Z,1.25
2022-09-10T13:17:47.820Z,1.35
2022-09-10T13:20:35.464Z,1.50
2022-09-10T13:23:47.855Z,1.40
2022-09-10T13:26:47.229Z,2.05
2022-09-10T13:29:36.440Z,1.60
2022-09-10T13:32:37.621Z,1.40
2022-09-10T13:36:01.748Z,2.00
2022-09-10T13:39:14.415Z,1.52
2022-09-10T13:42:27.579Z,1.75
2022-09-10T13:45:21.766Z,1.55
2022-09-10T13:48:17.693Z,1.58
2022-09-10T13:51:31.192Z,1.70
2022-09-10T13:54:35.565Z,1.60
2022-09-10T13:57:40.986Z,2.50
2022-09-10T14:00:32.004Z,1.45
2022-09-10T14:03:35.203Z,1.33
2022-09-10T14:06:23.243Z,1.10
2022-09-10T14:09:14.865Z,1.20
2022-09-10T14:12:06.445Z,1.17
2022-09-10T14:14:55.487Z,1.43
2022-09-10T14:17:47.885Z,1.50
2022-09-10T14:20:35.929Z,1.33
2022-09-10T14:23:29.699Z,1.50
2022-09-10T14:26:24.473Z,1.33
2022-09-10T14:29:25.801Z,1.60
2022-09-10T14:32:31.579Z,3.25
2022-09-10T14:35:43.048Z,2.67
2022-09-10T14:38:34.079Z,2.15
2022-09-10T14:41:24.838Z,4.25
2022-09-10T14:44:29.560Z,2.17
2022-09-10T14:47:26.353Z,3.63
2022-09-10T14:50:28.354Z,1.73
2022-09-10T14:53:13.743Z,2.45
2022-09-10T14:55:59.185Z,2.70
2022-09-10T14:58:45.888Z,5.13
2022-09-10T15:01:31.659Z,2.83
2022-09-10T15:04:26.647Z,5.60
2022-09-10T15:07:13.444Z,1.83
2022-09-10T15:09:59.113Z,2.40
2022-09-10T15:12:49.707Z,2.47
2022-09-10T15:15:35.017Z,2.03
2022-09-10T15:18:20.293Z,1.95
2022-09-10T15:21:07.326Z,2.05
2022-09-10T15:23:52.844Z,1.95
2022-09-10T15:26:38.360Z,1.70
2022-09-10T15:29:26.114Z,1.60
2022-09-10T15:32:12.545Z,3.05
2022-09-10T15:34:57.893Z,2.13
2022-09-10T15:37:43.390Z,1.40
2022-09-10T15:40:28.856Z,1.45
2022-09-10T15:43:14.493Z,1.90
2022-09-10T15:46:02.048Z,1.50
2022-09-10T15:48:47.507Z,1.52
2022-09-10T15:51:32.814Z,2.53
2022-09-10T15:54:17.987Z,2.22
2022-09-10T15:57:03.644Z,1.40
2022-09-10T15:59:49.290Z,1.30
2022-09-10T16:02:34.630Z,1.23
2022-09-10T16:05:23.643Z,1.33
2022-09-10T16:08:08.751Z,1.60
2022-09-10T16:10:54.833Z,1.20
2022-09-10T16:13:40.315Z,1.00
2022-09-10T16:16:26.862Z,1.17
2022-09-10T16:19:13.290Z,1.35
2022-09-10T16:21:58.765Z,1.02
2022-09-10T16:24:44.423Z,0.88
2022-09-10T16:27:29.856Z,0.68
2022-09-10T16:30:15.163Z,0.80
2022-09-10T16:33:00.778Z,1.27
2022-09-10T16:35:47.601Z,0.70
2022-09-10T16:38:32.699Z,0.60
2022-09-10T16:41:18.014Z,1.10
2022-09-10T16:44:03.403Z,1.30
2022-09-10T16:46:49.765Z,1.17
2022-09-10T16:49:35.056Z,1.42
2022-09-10T16:52:20.556Z,1.10
2022-09-10T16:55:06.946Z,0.88
2022-09-10T16:57:52.851Z,1.00
2022-09-10T17:00:40.310Z,0.95
2022-09-10T17:03:29.820Z,0.90
2022-09-10T17:06:18.204Z,0.90
2022-09-10T17:09:04.297Z,0.93
2022-09-10T17:11:49.372Z,0.80
2022-09-10T17:14:34.725Z,0.70
2022-09-10T17:17:20.075Z,1.08
2022-09-10T17:20:07.325Z,1.20
2022-09-10T17:22:52.391Z,1.20
2022-09-10T17:25:37.958Z,1.05
2022-09-10T17:28:23.244Z,1.25
2022-09-10T17:31:08.661Z,0.80
2022-09-10T17:33:55.548Z,0.90
2022-09-10T17:36:43.057Z,1.10
2022-09-10T17:39:29.242Z,0.85
2022-09-10T17:42:15.024Z,1.17
2022-09-10T17:45:04.727Z,1.20
2022-09-10T17:47:49.739Z,1.20
2022-09-10T17:50:35.567Z,1.25
2022-09-10T17:53:21.088Z,1.50
2022-09-10T17:56:08.660Z,1.70
2022-09-10T17:59:02.552Z,1.50
2022-09-10T18:01:48.124Z,1.70
2022-09-10T18:04:33.517Z,1.60
2022-09-10T18:07:18.911Z,1.90
2022-09-10T18:10:05.092Z,1.58
2022-09-10T18:12:50.143Z,1.70
2022-09-10T18:15:42.139Z,1.80
2022-09-10T18:18:27.991Z,2.08
2022-09-10T18:21:19.366Z,1.90
2022-09-10T18:24:14.404Z,2.25
2022-09-10T18:27:04.244Z,2.47
2022-09-10T18:29:49.636Z,2.17
2022-09-10T18:32:35.161Z,1.40
2022-09-10T18:35:20.949Z,1.52
2022-09-10T18:38:06.204Z,1.10
2022-09-10T18:40:52.281Z,1.45
2022-09-10T18:43:38.375Z,1.30
2022-09-10T18:46:24.261Z,1.10
2022-09-10T18:49:15.770Z,1.88
2022-09-10T18:52:03.835Z,1.70
2022-09-10T18:54:49.428Z,1.98
2022-09-10T18:57:34.734Z,2.60
2022-09-10T19:00:20.000Z,4.43
2022-09-10T19:03:06.036Z,2.17
2022-09-10T19:05:51.940Z,1.60
2022-09-10T19:08:38.907Z,2.15
2022-09-10T19:11:27.676Z,1.70
2022-09-10T19:14:32.703Z,1.60
2022-09-10T19:17:19.213Z,1.55
2022-09-10T19:20:05.135Z,1.52
2022-09-10T19:22:50.448Z,1.90
2022-09-10T19:25:35.867Z,1.80
2022-09-10T19:28:21.746Z,1.38
2022-09-10T19:31:08.345Z,1.60
2022-09-10T19:33:58.738Z,1.75
2022-09-10T19:36:44.675Z,1.75
2022-09-10T19:39:29.796Z,1.70
2022-09-10T19:42:15.160Z,1.40
2022-09-10T19:45:00.593Z,1.73
2022-09-10T19:47:46.050Z,1.33
2022-09-10T19:50:31.608Z,1.60
2022-09-10T19:53:16.914Z,2.40
2022-09-10T19:56:20.219Z,2.33
2022-09-10T19:59:08.770Z,2.58
2022-09-10T20:01:53.928Z,1.80
2022-09-10T20:04:39.217Z,1.60
2022-09-10T20:07:25.056Z,1.52
2022-09-10T20:10:10.653Z,1.25
2022-09-10T20:12:56.544Z,1.95
2022-09-10T20:15:45.422Z,2.00
2022-09-10T20:18:32.551Z,1.42
2022-09-10T20:21:23.159Z,1.30
2022-09-10T20:24:08.880Z,1.52
2022-09-10T20:26:54.359Z,1.17
2022-09-10T20:29:41.405Z,1.25
2022-09-10T20:32:27.320Z,1.20
2022-09-10T20:35:13.197Z,1.30
2022-09-10T20:37:58.445Z,1.33
2022-09-10T20:40:43.937Z,0.90
2022-09-10T20:43:29.587Z,0.80
2022-09-10T20:46:16.997Z,0.70
2022-09-10T20:49:05.471Z,0.90
2022-09-10T20:51:50.852Z,0.68
2022-09-10T20:54:35.958Z,0.70
2022-09-10T20:57:22.720Z,0.60
2022-09-10T21:00:08.624Z,0.77
2022-09-10T21:02:53.987Z,0.60
2022-09-10T21:05:39.887Z,0.80
2022-09-10T21:08:25.365Z,0.52
2022-09-10T21:11:12.583Z,0.70
2022-09-10T21:13:59.981Z,0.63
2022-09-10T21:16:47.124Z,0.75
2022-09-10T21:19:32.222Z,0.75
2022-09-10T21:22:17.614Z,0.52
2022-09-10T21:25:02.959Z,0.40
2022-09-10T21:27:48.315Z,0.60
2022-09-10T21:30:33.812Z,0.70
2022-09-10T21:33:19.801Z,0.60
2022-09-10T21:36:12.209Z,0.60
2022-09-10T21:41:49.568Z,0.43
2022-09-10T21:44:34.692Z,0.50
2022-09-10T21:47:20.071Z,0.50
2022-09-10T21:50:05.764Z,0.70
2022-09-10T21:52:51.063Z,0.60
2022-09-10T21:55:37.024Z,0.70
2022-09-10T21:58:23.103Z,0.60
2022-09-10T22:01:18.481Z,0.80
2022-09-10T22:04:04.034Z,1.20
2022-09-10T22:06:49.634Z,0.95
2022-09-10T22:09:34.576Z,1.10
2022-09-10T22:12:20.267Z,0.93
2022-09-10T22:15:06.650Z,0.82
2022-09-10T22:17:51.844Z,0.63
2022-09-10T22:20:37.212Z,0.60
2022-09-10T22:23:22.588Z,1.00
2022-09-10T22:26:16.347Z,0.70
2022-09-10T22:29:03.248Z,0.60
2022-09-10T22:31:49.624Z,0.70
2022-09-10T22:34:34.842Z,0.80
2022-09-10T22:37:20.371Z,0.85
2022-09-10T22:40:05.977Z,0.80
2022-09-10T22:42:51.855Z,0.60
2022-09-10T22:45:37.009Z,0.80
2022-09-10T22:48:22.446Z,0.60
2022-09-10T22:51:11.334Z,0.80
2022-09-10T22:53:57.966Z,0.80
2022-09-10T22:56:44.481Z,0.60
2022-09-10T22:59:29.988Z,0.70
2022-09-10T23:02:15.615Z,0.82
2022-09-10T23:05:01.378Z,0.90
2022-09-10T23:07:49.326Z,0.77
2022-09-10T23:10:34.507Z,0.70
2022-09-10T23:13:20.894Z,0.73
2022-09-10T23:16:14.854Z,1.30
2022-09-10T23:19:03.938Z,0.93
2022-09-10T23:21:51.442Z,0.80
2022-09-10T23:24:36.445Z,0.70
2022-09-10T23:27:23.206Z,0.68
2022-09-10T23:30:08.707Z,0.80
2022-09-10T23:32:54.506Z,0.60
2022-09-10T23:35:39.958Z,1.00
2022-09-10T23:38:25.992Z,1.13
2022-09-10T23:41:12.353Z,1.00
2022-09-10T23:43:58.089Z,0.88
2022-09-10T23:46:44.563Z,0.90
2022-09-10T23:49:30.061Z,0.95
2022-09-10T23:52:15.783Z,0.85
2022-09-10T23:55:00.843Z,0.93
2022-09-10T23:57:47.176Z,1.10
